createdAt,value
2023-02-22T00:02:10.984Z,3.02
2023-02-22T00:07:15.172Z,3.07
2023-02-22T00:12:18.792Z,3.07
2023-02-22T00:17:22.309Z,3.05
2023-02-22T00:22:25.828Z,3.08
2023-02-22T00:27:29.457Z,3.07
2023-02-22T00:32:33.311Z,3.03
2023-02-22T00:37:36.781Z,2.91
2023-02-22T00:42:40.394Z,2.89
2023-02-22T00:47:43.807Z,2.90
2023-02-22T00:52:48.348Z,2.84
2023-02-22T00:57:51.662Z,2.75
2023-02-22T01:02:57.199Z,2.69
2023-02-22T01:08:02.607Z,2.64
2023-02-22T01:13:09.515Z,2.64
2023-02-22T01:18:13.613Z,2.64
2023-02-22T01:23:17.645Z,2.60
2023-02-22T01:28:22.786Z,2.59
2023-02-22T01:33:26.414Z,2.62
2023-02-22T01:38:29.916Z,2.62
2023-02-22T01:43:34.291Z,2.60
2023-02-22T01:48:49.747Z,2.51
2023-02-22T01:54:18.999Z,2.45
2023-02-22T01:59:23.609Z,2.43
2023-02-22T02:04:28.451Z,2.39
2023-02-22T02:09:50.300Z,2.33
2023-02-22T02:14:54.225Z,2.29
2023-02-22T02:20:12.183Z,2.21
2023-02-22T02:25:18.781Z,2.16
2023-02-22T02:30:50.342Z,2.09
2023-02-22T02:36:26.522Z,2.06
2023-02-22T02:41:36.486Z,2.07
2023-02-22T02:47:03.094Z,2.07
2023-02-22T02:52:09.513Z,2.02
2023-02-22T02:57:13.457Z,1.99
2023-02-22T03:02:34.992Z,2.00
2023-02-22T03:07:51.106Z,1.99
2023-02-22T03:13:06.613Z,1.99
2023-02-22T03:18:23.141Z,1.99
2023-02-22T03:23:35.660Z,2.00
2023-02-22T03:28:43.570Z,2.01
2023-02-22T03:33:52.513Z,1.96
2023-02-22T03:38:59.746Z,1.91
2023-02-22T03:44:11.319Z,1.92
2023-02-22T03:49:37.983Z,1.89
2023-02-22T03:54:41.697Z,1.86
2023-02-22T03:59:46.252Z,1.82
2023-02-22T04:04:50.126Z,1.78
2023-02-22T04:09:53.676Z,1.78
2023-02-22T04:14:57.197Z,1.75
2023-02-22T04:20:00.706Z,1.78
2023-02-22T04:25:04.528Z,1.81
2023-02-22T04:30:09.014Z,1.79
2023-02-22T04:35:12.693Z,1.82
2023-02-22T04:40:17.842Z,1.82
2023-02-22T04:45:21.254Z,1.82
2023-02-22T04:50:25.180Z,1.79
2023-02-22T04:55:28.801Z,1.75
2023-02-22T05:00:32.318Z,1.71
2023-02-22T05:05:35.851Z,1.72
2023-02-22T05:10:39.342Z,1.70
2023-02-22T05:15:42.921Z,1.71
2023-02-22T05:20:46.429Z,1.70
2023-02-22T05:25:49.992Z,1.67
2023-02-22T05:30:53.507Z,1.68
2023-02-22T05:35:57.024Z,1.66
2023-02-22T05:41:01.458Z,1.67
2023-02-22T05:46:04.779Z,1.62
2023-02-22T05:51:10.887Z,1.62
2023-02-22T05:56:15.901Z,1.67
2023-02-22T06:01:20.192Z,1.80
2023-02-22T06:06:23.550Z,1.92
2023-02-22T06:11:27.089Z,2.07
2023-02-22T06:16:32.176Z,2.21
2023-02-22T06:21:35.625Z,2.31
2023-02-22T06:26:39.139Z,2.45
2023-02-22T06:31:42.716Z,2.63
2023-02-22T06:36:48.342Z,2.69
2023-02-22T06:41:52.487Z,2.81
2023-02-22T06:46:56.630Z,2.94
2023-02-22T06:52:00.305Z,3.03
2023-02-22T06:57:03.915Z,3.10
2023-02-22T07:02:07.421Z,3.17
2023-02-22T07:07:11.366Z,3.21
2023-02-22T07:12:15.084Z,3.32
2023-02-22T07:17:18.397Z,3.41
2023-02-22T07:22:21.917Z,3.47
2023-02-22T07:27:25.428Z,3.49
2023-02-22T07:32:28.980Z,3.50
2023-02-22T07:37:32.767Z,3.52
2023-02-22T07:43:10.890Z,3.60
2023-02-22T07:48:17.373Z,3.66
2023-02-22T07:53:30.487Z,3.69
2023-02-22T07:58:33.933Z,3.71
2023-02-22T08:03:38.413Z,3.70
2023-02-22T08:08:41.989Z,3.75
2023-02-22T08:13:45.500Z,3.75
2023-02-22T08:18:49.023Z,3.80
2023-02-22T08:23:54.616Z,3.79
2023-02-22T08:28:58.108Z,3.79
2023-02-22T08:34:01.612Z,3.75
2023-02-22T08:39:05.330Z,3.75
2023-02-22T08:44:08.847Z,3.66
2023-02-22T08:49:12.358Z,3.70
2023-02-22T08:54:15.978Z,3.87
2023-02-22T08:59:19.594Z,4.03
2023-02-22T09:04:23.211Z,4.14
2023-02-22T09:09:26.724Z,4.21
2023-02-22T09:14:30.342Z,4.40
2023-02-22T09:19:33.960Z,4.53
2023-02-22T09:24:37.582Z,4.67
2023-02-22T09:29:41.301Z,4.89
2023-02-22T09:34:46.157Z,5.04
2023-02-22T09:39:49.645Z,5.14
2023-02-22T09:45:13.152Z,5.13
2023-02-22T09:50:22.913Z,5.01
2023-02-22T09:55:36.869Z,4.84
2023-02-22T10:00:43.934Z,4.93
2023-02-22T10:06:02.252Z,5.09
2023-02-22T10:11:26.838Z,4.98
2023-02-22T10:16:49.249Z,4.81
2023-02-22T10:22:14.317Z,4.77
2023-02-22T10:27:27.996Z,4.89
2023-02-22T10:32:59.965Z,4.94
2023-02-22T10:38:12.714Z,4.82
2023-02-22T10:43:16.308Z,4.90
2023-02-22T10:48:21.923Z,4.73
2023-02-22T10:53:28.002Z,4.58
2023-02-22T10:59:02.615Z,4.57
2023-02-22T11:04:15.325Z,4.62
2023-02-22T11:09:22.840Z,4.66
2023-02-22T11:14:31.263Z,4.73
2023-02-22T11:19:36.632Z,4.70
2023-02-22T11:25:07.682Z,4.72
2023-02-22T11:30:19.007Z,4.79
2023-02-22T11:35:28.342Z,4.90
2023-02-22T11:40:33.883Z,4.98
2023-02-22T11:45:49.738Z,5.11
2023-02-22T11:51:14.606Z,5.27
2023-02-22T11:56:41.110Z,5.21
2023-02-22T12:02:00.253Z,5.21
2023-02-22T12:07:30.190Z,5.19
2023-02-22T12:12:43.327Z,5.08
2023-02-22T12:18:01.082Z,4.89
2023-02-22T12:23:15.067Z,4.69
2023-02-22T12:28:39.475Z,4.68
2023-02-22T12:34:22.202Z,4.57
2023-02-22T12:39:53.770Z,4.59
2023-02-22T12:45:17.154Z,4.54
2023-02-22T12:50:23.789Z,4.73
2023-02-22T12:55:36.147Z,4.80
2023-02-22T13:00:45.722Z,4.98
2023-02-22T13:05:57.719Z,5.29
2023-02-22T13:11:04.099Z,5.47
2023-02-22T13:16:37.003Z,5.63
2023-02-22T13:21:53.729Z,5.77
2023-02-22T13:27:01.033Z,5.94
2023-02-22T13:32:16.431Z,5.94
2023-02-22T13:37:41.451Z,6.18
2023-02-22T13:43:16.196Z,6.41
2023-02-22T13:48:38.861Z,6.33
2023-02-22T13:53:58.193Z,6.16
2023-02-22T13:59:03.806Z,6.00
2023-02-22T14:04:37.427Z,5.67
2023-02-22T14:09:47.107Z,5.42
2023-02-22T14:15:26.758Z,5.25
2023-02-22T14:20:40.406Z,5.13
2023-02-22T14:25:44.945Z,5.01
2023-02-22T14:30:48.150Z,4.91
2023-02-22T14:35:52.792Z,4.85
2023-02-22T14:40:59.293Z,4.77
2023-02-22T14:46:05.593Z,4.91
2023-02-22T14:51:26.529Z,5.16
2023-02-22T14:57:15.105Z,5.29
2023-02-22T15:02:20.758Z,5.30
2023-02-22T15:07:31.942Z,5.29
2023-02-22T15:12:36.554Z,5.18
2023-02-22T15:17:40.994Z,4.89
2023-02-22T15:22:44.645Z,4.73
2023-02-22T15:27:48.237Z,4.56
2023-02-22T15:33:03.607Z,4.33
2023-02-22T15:38:20.283Z,4.19
2023-02-22T15:43:25.211Z,4.07
2023-02-22T15:48:32.022Z,3.99
2023-02-22T15:53:40.224Z,4.03
2023-02-22T15:58:46.806Z,4.12
2023-02-22T16:03:59.953Z,4.08
2023-02-22T16:09:14.936Z,4.11
2023-02-22T16:14:26.736Z,4.12
2023-02-22T16:19:37.018Z,4.17
2023-02-22T16:24:41.269Z,4.18
2023-02-22T16:30:00.839Z,4.19
2023-02-22T16:35:04.504Z,4.13
2023-02-22T16:40:22.721Z,4.07
2023-02-22T16:45:26.128Z,3.97
2023-02-22T16:50:29.439Z,3.80
2023-02-22T16:55:33.571Z,3.74
2023-02-22T17:00:37.086Z,3.66
2023-02-22T17:05:40.628Z,3.64
2023-02-22T17:10:46.576Z,3.58
2023-02-22T17:15:50.437Z,3.55
2023-02-22T17:20:55.169Z,3.57
2023-02-22T17:26:03.610Z,3.65
2023-02-22T17:31:07.716Z,3.74
2023-02-22T17:36:11.109Z,3.68
2023-02-22T17:41:14.630Z,3.67
2023-02-22T17:46:20.170Z,3.64
2023-02-22T17:51:26.403Z,3.55
2023-02-22T17:56:29.805Z,3.61
2023-02-22T18:01:34.016Z,3.66
2023-02-22T18:06:38.459Z,3.63
2023-02-22T18:11:41.852Z,3.62
2023-02-22T18:16:47.755Z,3.60
2023-02-22T18:21:51.223Z,3.60
2023-02-22T18:26:54.709Z,3.59
2023-02-22T18:31:58.397Z,3.48
2023-02-22T18:37:01.863Z,3.46
2023-02-22T18:42:05.521Z,3.43
2023-02-22T18:47:09.243Z,3.43
2023-02-22T18:52:12.853Z,3.34
2023-02-22T18:57:17.202Z,3.29
2023-02-22T19:02:21.440Z,3.24
2023-02-22T19:07:26.505Z,3.18
2023-02-22T19:12:31.634Z,3.26
2023-02-22T19:17:36.801Z,3.30
2023-02-22T19:22:40.239Z,3.28
2023-02-22T19:27:44.738Z,3.28
2023-02-22T19:32:48.233Z,3.25
2023-02-22T19:38:00.765Z,3.25
2023-02-22T19:43:04.707Z,3.24
2023-02-22T19:48:08.291Z,3.21
2023-02-22T19:53:14.293Z,3.14
2023-02-22T19:58:17.610Z,3.09
2023-02-22T20:03:24.943Z,3.06
2023-02-22T20:08:28.574Z,3.04
2023-02-22T20:13:32.348Z,3.02
2023-02-22T20:18:36.987Z,2.98
2023-02-22T20:23:44.471Z,2.86
2023-02-22T20:28:48.835Z,2.82
2023-02-22T20:33:57.475Z,2.84
2023-02-22T20:39:01.394Z,2.83
2023-02-22T20:44:07.119Z,2.78
2023-02-22T20:49:14.140Z,2.70
2023-02-22T20:54:18.038Z,2.68
2023-02-22T20:59:22.114Z,2.60
2023-02-22T21:04:25.666Z,2.53
2023-02-22T21:09:29.989Z,2.43
2023-02-22T21:14:33.380Z,2.26
2023-02-22T21:19:36.912Z,2.20
2023-02-22T21:24:40.927Z,2.13
2023-02-22T21:29:44.439Z,2.06
2023-02-22T21:34:48.266Z,1.96
2023-02-22T21:39:51.677Z,1.79
2023-02-22T21:44:56.524Z,1.65
2023-02-22T21:50:01.992Z,1.52
2023-02-22T21:55:06.424Z,1.46
2023-02-22T22:00:29.314Z,1.40
2023-02-22T22:05:34.349Z,1.36
2023-02-22T22:10:37.858Z,1.31
2023-02-22T22:15:41.433Z,1.28
2023-02-22T22:20:45.297Z,1.25
2023-02-22T22:25:51.475Z,1.23
2023-02-22T22:30:55.136Z,1.21
2023-02-22T22:35:59.017Z,1.18
2023-02-22T22:41:05.910Z,1.14
2023-02-22T22:46:09.372Z,1.11
2023-02-22T22:51:17.014Z,1.04
2023-02-22T22:56:35.499Z,0.99
2023-02-22T23:01:44.928Z,0.93
2023-02-22T23:06:50.959Z,0.85
2023-02-22T23:12:22.870Z,0.78
2023-02-22T23:17:31.553Z,0.65
2023-02-22T23:22:35.061Z,0.57
2023-02-22T23:27:38.577Z,0.48
2023-02-22T23:32:43.015Z,0.40
2023-02-22T23:37:58.207Z,0.32
2023-02-22T23:43:04.483Z,0.27
2023-02-22T23:48:07.852Z,0.20
2023-02-22T23:53:15.410Z,0.17
2023-02-22T23:58:23.027Z,0.08
